Time;durP1;ratioP1;P1;durP2;ratioP2;P2;SDS_P1;SDS_P2;PMS_P1;PMS_P2;Temp;Humidity;BMP_temperature;BMP_pressure;BME280_temperature;BME280_humidity;BME280_pressure;Samples;Min_cycle;Max_cycle;Signal;HPM_P1;HPM_P2
2021/08/07 00:01:29;;;;;;;9.27;6.30;;;16.70;99.90;;;;;;5073993;28;20714;-71
2021/08/07 00:03:55;;;;;;;9.57;6.32;;;16.70;99.90;;;;;;5076919;28;20032;-71
2021/08/07 00:06:21;;;;;;;11.25;5.80;;;16.70;99.90;;;;;;5087073;28;20032;-72
2021/08/07 00:08:48;;;;;;;8.90;5.70;;;16.70;99.90;;;;;;5078904;28;20052;-73
2021/08/07 00:11:14;;;;;;;8.60;5.68;;;16.70;99.90;;;;;;5080585;28;20048;-72
2021/08/07 00:13:43;;;;;;;12.50;6.00;;;16.70;99.90;;;;;;5084555;28;20041;-73
2021/08/07 00:16:09;;;;;;;7.80;5.18;;;16.70;99.90;;;;;;5074658;28;20044;-74
2021/08/07 00:18:35;;;;;;;7.53;5.30;;;16.80;99.90;;;;;;5083027;28;20043;-73
2021/08/07 00:21:02;;;;;;;8.50;5.97;;;16.80;99.90;;;;;;5074499;28;20537;-71
2021/08/07 00:23:28;;;;;;;8.55;5.93;;;16.70;99.90;;;;;;5078977;28;20048;-72
2021/08/07 00:25:54;;;;;;;8.35;5.43;;;16.70;99.90;;;;;;5084593;28;20089;-73
2021/08/07 00:28:20;;;;;;;8.55;6.30;;;16.80;99.90;;;;;;5064477;28;20048;-74
2021/08/07 00:30:46;;;;;;;10.88;6.18;;;16.80;99.90;;;;;;5080847;28;20135;-73
2021/08/07 00:33:12;;;;;;;6.53;5.50;;;16.80;99.90;;;;;;5067488;28;20443;-74
2021/08/07 00:35:37;;;;;;;10.00;6.68;;;16.80;99.90;;;;;;5070281;28;20545;-74
2021/08/07 00:38:04;;;;;;;8.90;6.03;;;16.80;99.90;;;;;;5065204;28;20183;-75
2021/08/07 00:40:29;;;;;;;7.45;5.65;;;16.80;99.90;;;;;;5083268;28;20119;-74
2021/08/07 00:42:55;;;;;;;9.45;5.80;;;16.80;99.90;;;;;;5075610;28;20044;-73
2021/08/07 00:45:21;;;;;;;8.93;6.00;;;16.80;99.90;;;;;;5058747;28;20165;-72
2021/08/07 00:47:47;;;;;;;8.25;5.55;;;16.70;99.90;;;;;;5064920;28;21040;-73
2021/08/07 00:50:13;;;;;;;7.00;5.32;;;16.80;99.90;;;;;;5080899;28;20068;-72
2021/08/07 00:52:41;;;;;;;9.10;4.85;;;16.70;99.90;;;;;;5067721;28;20173;-73
2021/08/07 00:55:11;;;;;;;7.20;4.55;;;16.70;99.90;;;;;;5079815;28;20121;-72
2021/08/07 00:57:36;;;;;;;9.20;4.50;;;16.80;99.90;;;;;;5084441;28;20044;-72
2021/08/07 01:00:04;;;;;;;7.75;4.50;;;16.70;99.90;;;;;;5077756;28;20036;-72
2021/08/07 01:02:30;;;;;;;6.90;3.65;;;16.70;99.90;;;;;;5073846;28;20486;-72
2021/08/07 01:05:04;;;;;;;7.53;3.60;;;16.70;99.90;;;;;;5076125;28;20082;-72
2021/08/07 01:07:46;;;;;;;8.85;4.10;;;16.70;99.90;;;;;;5079310;28;20028;-72
2021/08/07 01:10:26;;;;;;;8.20;3.38;;;16.60;99.90;;;;;;5084059;28;20499;-71
2021/08/07 01:13:08;;;;;;;9.00;3.25;;;16.60;99.90;;;;;;5081965;28;20048;-72
2021/08/07 01:15:40;;;;;;;7.85;2.83;;;16.60;99.90;;;;;;5068763;28;20032;-72
2021/08/07 01:18:12;;;;;;;8.65;4.00;;;16.50;99.90;;;;;;5073333;28;20037;-72
2021/08/07 01:20:44;;;;;;;6.57;2.90;;;16.60;99.90;;;;;;5076023;28;20048;-72
2021/08/07 01:23:22;;;;;;;5.97;2.97;;;16.50;99.90;;;;;;5072758;28;20488;-72
2021/08/07 01:25:57;;;;;;;6.72;2.92;;;16.50;99.90;;;;;;5071340;28;20048;-72
2021/08/07 01:28:25;;;;;;;7.32;3.15;;;16.50;99.90;;;;;;5038975;28;1271835;-72
2021/08/07 01:30:54;;;;;;;6.05;2.78;;;16.50;99.90;;;;;;5088585;28;20143;-73
2021/08/07 01:33:21;;;;;;;5.50;2.80;;;16.50;99.90;;;;;;5071962;28;20111;-72
2021/08/07 01:35:50;;;;;;;5.30;2.95;;;16.50;99.90;;;;;;5077766;28;20089;-72
2021/08/07 01:38:17;;;;;;;6.07;2.70;;;16.40;99.90;;;;;;5080342;28;21794;-72
2021/08/07 01:40:43;;;;;;;5.88;2.67;;;16.40;99.90;;;;;;5053904;28;20306;-72
2021/08/07 01:43:12;;;;;;;6.10;2.40;;;16.40;99.90;;;;;;5076673;28;20041;-72
2021/08/07 01:45:39;;;;;;;6.32;2.45;;;16.40;99.90;;;;;;5083178;28;20036;-72
2021/08/07 01:48:11;;;;;;;7.70;2.40;;;16.40;99.90;;;;;;5049887;28;20040;-71
2021/08/07 01:51:04;;;;;;;4.80;2.47;;;16.40;99.90;;;;;;5069722;28;20250;-72
2021/08/07 01:53:33;;;;;;;7.32;2.55;;;16.30;99.90;;;;;;5073676;28;20044;-71
2021/08/07 01:56:09;;;;;;;6.97;2.45;;;16.30;99.90;;;;;;5080303;28;20123;-72
2021/08/07 01:59:00;;;;;;;7.68;2.67;;;16.30;99.90;;;;;;5080196;28;20037;-71
2021/08/07 02:01:28;;;;;;;6.68;2.65;;;16.30;99.80;;;;;;5078669;28;20040;-72
2021/08/07 02:03:55;;;;;;;5.68;2.70;;;16.30;99.80;;;;;;5068108;28;20055;-74
2021/08/07 02:06:21;;;;;;;7.60;2.95;;;16.30;99.80;;;;;;5066845;28;20040;-74
2021/08/07 02:08:49;;;;;;;5.45;2.22;;;16.30;99.60;;;;;;5075767;28;20498;-73
2021/08/07 02:11:16;;;;;;;5.55;2.40;;;16.30;99.70;;;;;;5081150;28;20115;-71
2021/08/07 02:13:42;;;;;;;6.70;2.70;;;16.30;99.60;;;;;;5081128;28;20064;-71
2021/08/07 02:16:12;;;;;;;7.63;2.40;;;16.20;99.50;;;;;;5056556;28;20458;-72
2021/08/07 02:18:40;;;;;;;8.30;2.60;;;16.20;99.30;;;;;;5075456;28;20044;-72
2021/08/07 02:21:07;;;;;;;5.82;2.33;;;16.30;99.20;;;;;;5069659;28;20032;-72
2021/08/07 02:23:33;;;;;;;6.40;2.63;;;16.20;99.30;;;;;;5070245;28;20040;-72
2021/08/07 02:26:03;;;;;;;7.45;3.05;;;16.20;99.30;;;;;;5079875;28;20048;-71
2021/08/07 02:28:31;;;;;;;5.57;2.38;;;16.20;99.30;;;;;;5061857;28;20060;-71
2021/08/07 02:31:01;;;;;;;7.15;2.60;;;16.10;99.40;;;;;;5075042;28;20055;-71
2021/08/07 02:33:28;;;;;;;5.85;2.33;;;16.10;99.40;;;;;;5075621;28;20048;-72
2021/08/07 02:35:56;;;;;;;6.22;2.65;;;16.10;99.40;;;;;;5070778;28;20048;-72
2021/08/07 02:38:23;;;;;;;5.45;2.63;;;16.00;99.50;;;;;;5067850;28;20048;-72
2021/08/07 02:40:50;;;;;;;6.53;2.70;;;16.00;99.60;;;;;;5078454;28;20074;-72
2021/08/07 02:43:17;;;;;;;5.80;2.80;;;16.00;99.70;;;;;;5082696;28;20028;-72
2021/08/07 02:45:44;;;;;;;5.63;2.42;;;16.00;99.80;;;;;;5079480;28;20086;-73
2021/08/07 02:48:11;;;;;;;6.90;3.35;;;16.00;99.80;;;;;;5072083;28;20518;-73
2021/08/07 02:50:39;;;;;;;7.65;2.63;;;16.00;99.90;;;;;;5073224;28;20090;-72
2021/08/07 02:53:05;;;;;;;6.43;2.95;;;15.90;99.90;;;;;;5081774;28;20040;-72
2021/08/07 02:55:31;;;;;;;4.07;2.35;;;15.90;99.90;;;;;;5070816;28;20501;-72
2021/08/07 02:57:58;;;;;;;6.55;2.40;;;15.90;99.90;;;;;;5081628;28;20044;-72
2021/08/07 03:00:24;;;;;;;8.30;3.00;;;15.90;99.90;;;;;;5082421;28;20036;-72
2021/08/07 03:02:50;;;;;;;5.13;2.42;;;15.90;99.90;;;;;;5078493;28;20135;-72
2021/08/07 03:05:18;;;;;;;7.78;3.00;;;15.90;99.90;;;;;;5074754;28;20159;-71
2021/08/07 03:07:44;;;;;;;7.88;3.25;;;15.90;99.90;;;;;;5085606;28;20114;-71
2021/08/07 03:10:13;;;;;;;6.40;2.55;;;15.90;99.90;;;;;;5060885;28;20135;-73
2021/08/07 03:12:39;;;;;;;7.65;2.95;;;15.90;99.90;;;;;;5075074;28;20048;-72
2021/08/07 03:15:06;;;;;;;5.43;2.60;;;15.90;99.90;;;;;;5075956;28;20073;-71
2021/08/07 03:17:32;;;;;;;8.20;2.80;;;15.90;99.90;;;;;;5072465;28;20459;-71
2021/08/07 03:19:59;;;;;;;8.48;3.50;;;15.80;99.90;;;;;;5080620;28;20059;-71
2021/08/07 03:22:25;;;;;;;8.30;2.72;;;15.80;99.90;;;;;;5078908;28;20556;-73
2021/08/07 03:24:51;;;;;;;9.40;3.03;;;15.80;99.90;;;;;;5079022;28;20121;-73
2021/08/07 03:27:17;;;;;;;6.47;2.80;;;15.80;99.90;;;;;;5073768;28;20503;-73
2021/08/07 03:29:43;;;;;;;5.68;2.60;;;15.80;99.90;;;;;;5085274;28;20042;-73
2021/08/07 03:32:19;;;;;;;12.65;3.30;;;15.70;99.90;;;;;;5062295;28;20040;-73
2021/08/07 03:34:45;;;;;;;4.75;2.50;;;15.70;99.90;;;;;;5077701;28;20060;-73
2021/08/07 03:37:15;;;;;;;9.55;2.97;;;15.60;99.90;;;;;;5082228;28;20035;-72
2021/08/07 03:39:41;;;;;;;8.93;3.58;;;15.60;99.90;;;;;;5077080;28;20049;-72
2021/08/07 03:42:07;;;;;;;9.02;3.50;;;15.50;99.90;;;;;;5085057;28;20032;-72
2021/08/07 03:44:33;;;;;;;7.47;2.95;;;15.50;99.90;;;;;;5077785;28;20040;-72
2021/08/07 03:46:59;;;;;;;7.80;3.35;;;15.50;99.90;;;;;;5076934;28;20413;-72
2021/08/07 03:49:25;;;;;;;10.32;3.72;;;15.40;99.90;;;;;;5058565;28;20040;-72
2021/08/07 03:51:51;;;;;;;8.07;3.90;;;15.40;99.90;;;;;;5070711;28;20060;-71
2021/08/07 03:54:17;;;;;;;9.52;3.60;;;15.30;99.90;;;;;;5058765;28;20048;-71
2021/08/07 03:56:43;;;;;;;6.47;3.42;;;15.30;99.90;;;;;;5044116;28;20450;-72
2021/08/07 03:59:09;;;;;;;8.00;3.58;;;15.20;99.90;;;;;;5062667;28;20048;-73
2021/08/07 04:01:35;;;;;;;8.55;3.70;;;15.20;99.90;;;;;;5072527;28;20047;-73
2021/08/07 04:04:01;;;;;;;9.15;3.50;;;15.20;99.90;;;;;;5082016;28;20055;-73
2021/08/07 04:06:27;;;;;;;9.93;4.10;;;15.10;99.90;;;;;;5085717;28;20100;-72
2021/08/07 04:08:53;;;;;;;10.23;3.70;;;15.10;99.90;;;;;;5067916;28;20107;-73
2021/08/07 04:11:19;;;;;;;9.38;4.00;;;15.10;99.90;;;;;;5064880;28;20040;-71
2021/08/07 04:13:45;;;;;;;11.00;3.90;;;15.00;99.90;;;;;;5079713;28;20040;-72
2021/08/07 04:16:11;;;;;;;9.63;4.15;;;15.00;99.90;;;;;;5074841;28;20039;-71
2021/08/07 04:18:37;;;;;;;10.98;3.88;;;15.00;99.90;;;;;;5069542;28;20194;-72
2021/08/07 04:21:03;;;;;;;12.65;3.95;;;14.90;99.90;;;;;;5072110;28;20040;-72
2021/08/07 04:23:29;;;;;;;11.27;4.38;;;14.90;99.90;;;;;;5074026;28;20102;-72
2021/08/07 04:25:54;;;;;;;7.68;4.03;;;14.90;99.90;;;;;;5064352;28;20101;-72
2021/08/07 04:28:20;;;;;;;11.18;4.50;;;14.90;99.90;;;;;;5069840;28;20048;-72
2021/08/07 04:30:46;;;;;;;8.52;3.58;;;14.90;99.90;;;;;;5080335;28;20041;-73
2021/08/07 04:33:12;;;;;;;9.77;4.20;;;14.80;99.90;;;;;;5066394;28;20418;-73
2021/08/07 04:35:39;;;;;;;11.13;4.43;;;14.80;99.90;;;;;;5061024;28;20040;-72
2021/08/07 04:38:05;;;;;;;9.10;3.67;;;14.80;99.90;;;;;;5076692;28;20044;-72
2021/08/07 04:40:31;;;;;;;11.73;3.97;;;14.80;99.90;;;;;;5083992;28;20484;-73
2021/08/07 04:42:57;;;;;;;12.70;4.10;;;14.80;99.90;;;;;;5073461;28;20388;-73
2021/08/07 04:45:23;;;;;;;10.63;4.07;;;14.80;99.90;;;;;;5083022;28;20073;-72
2021/08/07 04:48:01;;;;;;;9.07;4.78;;;14.80;99.90;;;;;;5059283;28;20041;-73
2021/08/07 04:50:30;;;;;;;9.80;3.92;;;14.80;99.90;;;;;;5078433;28;20044;-72
2021/08/07 04:52:56;;;;;;;11.68;4.40;;;14.80;99.90;;;;;;5078491;28;20097;-73
2021/08/07 04:55:23;;;;;;;10.95;3.92;;;14.80;99.90;;;;;;5071644;28;20063;-73
2021/08/07 04:57:49;;;;;;;10.77;4.30;;;14.80;99.90;;;;;;5073088;28;20036;-72
2021/08/07 05:00:16;;;;;;;12.73;4.38;;;14.90;99.90;;;;;;5073790;28;20131;-73
2021/08/07 05:02:45;;;;;;;9.50;3.88;;;14.90;99.90;;;;;;5069165;28;20037;-72
2021/08/07 05:05:11;;;;;;;10.18;4.00;;;14.80;99.90;;;;;;5071449;28;20093;-73
2021/08/07 05:07:37;;;;;;;9.15;4.75;;;14.90;99.90;;;;;;5070698;28;20035;-73
2021/08/07 05:10:05;;;;;;;10.10;3.47;;;14.90;99.90;;;;;;5052460;28;20043;-72
2021/08/07 05:12:31;;;;;;;9.95;3.80;;;15.00;99.90;;;;;;5074951;28;20461;-71
2021/08/07 05:14:57;;;;;;;11.25;4.47;;;15.00;99.90;;;;;;5053631;28;20123;-71
2021/08/07 05:17:27;;;;;;;10.30;4.50;;;15.00;99.90;;;;;;5072359;28;20043;-71
2021/08/07 05:19:54;;;;;;;10.83;4.60;;;15.00;99.90;;;;;;5071710;28;20450;-71
2021/08/07 05:22:20;;;;;;;10.68;4.22;;;15.00;99.90;;;;;;5071412;28;20040;-73
2021/08/07 05:24:47;;;;;;;10.93;4.32;;;15.00;99.90;;;;;;5063939;28;20055;-74
2021/08/07 05:27:12;;;;;;;11.52;3.80;;;15.00;99.90;;;;;;5079578;28;20094;-73
2021/08/07 05:29:40;;;;;;;9.88;4.18;;;15.00;99.90;;;;;;5069225;28;20140;-72
2021/08/07 05:32:06;;;;;;;13.23;4.72;;;15.00;99.90;;;;;;5067492;28;20078;-71
2021/08/07 05:34:32;;;;;;;11.75;4.60;;;15.00;99.90;;;;;;5069467;28;20068;-71
2021/08/07 05:36:58;;;;;;;10.20;4.20;;;15.00;99.90;;;;;;5066300;28;20159;-72
2021/08/07 05:39:23;;;;;;;9.88;4.70;;;15.10;99.90;;;;;;5069786;28;20044;-73
2021/08/07 05:41:49;;;;;;;8.38;3.83;;;15.00;99.90;;;;;;5073606;28;20440;-73
2021/08/07 05:44:15;;;;;;;9.90;4.55;;;15.10;99.90;;;;;;5070024;28;20064;-73
2021/08/07 05:46:41;;;;;;;11.20;4.50;;;15.10;99.90;;;;;;5076651;28;20649;-73
2021/08/07 05:49:07;;;;;;;10.45;4.78;;;15.20;99.90;;;;;;5055214;28;20123;-73
2021/08/07 05:51:35;;;;;;;9.43;4.45;;;15.20;99.90;;;;;;5056933;28;20486;-73
2021/08/07 05:54:04;;;;;;;9.85;4.60;;;15.30;99.90;;;;;;5068232;28;20032;-74
2021/08/07 05:56:30;;;;;;;10.40;4.38;;;15.40;99.90;;;;;;5066551;28;20036;-71
2021/08/07 05:58:57;;;;;;;11.55;4.65;;;15.50;99.90;;;;;;5067894;28;20376;-71
2021/08/07 06:01:24;;;;;;;11.60;5.20;;;15.50;99.90;;;;;;5049647;28;20042;-72
2021/08/07 06:03:50;;;;;;;11.75;4.65;;;15.60;99.90;;;;;;5072358;28;20503;-71
2021/08/07 06:06:16;;;;;;;13.07;4.88;;;15.60;99.90;;;;;;5072040;28;20059;-72
2021/08/07 06:08:42;;;;;;;9.90;4.72;;;15.60;99.90;;;;;;5057109;28;20059;-73
2021/08/07 06:11:09;;;;;;;8.95;4.00;;;15.70;99.90;;;;;;5069207;28;20406;-71
2021/08/07 06:13:35;;;;;;;10.52;4.57;;;15.70;99.90;;;;;;5069698;28;20056;-73
2021/08/07 06:16:00;;;;;;;9.07;4.28;;;15.80;99.90;;;;;;5065065;28;20037;-72
2021/08/07 06:18:29;;;;;;;7.38;4.57;;;15.90;99.90;;;;;;5069799;28;20039;-73
2021/08/07 06:20:55;;;;;;;9.45;4.50;;;16.00;99.90;;;;;;5051198;28;20032;-74
2021/08/07 06:23:24;;;;;;;9.65;4.78;;;16.00;99.90;;;;;;5068421;28;20032;-74
2021/08/07 06:25:50;;;;;;;12.70;5.45;;;16.10;99.90;;;;;;5048664;28;20056;-73
2021/08/07 06:28:16;;;;;;;10.23;3.97;;;16.10;99.90;;;;;;5077225;28;20407;-72
2021/08/07 06:30:48;;;;;;;12.32;5.00;;;16.20;99.90;;;;;;5048521;28;20497;-73
2021/08/07 06:33:14;;;;;;;17.27;5.45;;;16.10;99.90;;;;;;5074603;28;20071;-72
2021/08/07 06:35:40;;;;;;;9.57;4.22;;;16.10;99.90;;;;;;5068818;28;20047;-71
2021/08/07 06:38:07;;;;;;;9.25;4.20;;;16.10;99.90;;;;;;5076474;28;20070;-71
2021/08/07 06:40:37;;;;;;;11.02;5.40;;;16.20;99.90;;;;;;5065195;28;20044;-70
2021/08/07 06:43:03;;;;;;;8.40;4.90;;;16.20;99.90;;;;;;5068771;28;20064;-71
2021/08/07 06:45:29;;;;;;;10.63;4.30;;;16.20;99.90;;;;;;5068080;28;20123;-71
2021/08/07 06:47:54;;;;;;;11.30;4.50;;;16.30;99.90;;;;;;5071835;28;20823;-72
2021/08/07 06:50:20;;;;;;;11.93;4.75;;;16.30;99.90;;;;;;5074679;28;20040;-71
2021/08/07 06:52:46;;;;;;;9.50;4.32;;;16.40;99.90;;;;;;5072140;28;20860;-72
2021/08/07 06:55:12;;;;;;;15.65;4.50;;;16.40;99.90;;;;;;5075025;28;20665;-72
2021/08/07 06:57:41;;;;;;;9.65;4.35;;;16.50;99.90;;;;;;5075002;28;20059;-72
2021/08/07 07:00:09;;;;;;;8.30;4.33;;;16.50;99.90;;;;;;5070371;28;20887;-74
2021/08/07 07:02:36;;;;;;;10.20;4.32;;;16.50;99.90;;;;;;5071714;28;20653;-72
2021/08/07 07:05:03;;;;;;;8.35;4.15;;;16.50;99.90;;;;;;5061849;28;20101;-73
2021/08/07 07:07:32;;;;;;;8.63;4.80;;;16.60;99.90;;;;;;5075802;28;20122;-73
2021/08/07 07:09:58;;;;;;;9.82;4.93;;;16.70;99.90;;;;;;5065825;28;20063;-71
2021/08/07 07:12:23;;;;;;;10.18;4.40;;;16.70;99.90;;;;;;5058527;28;20115;-73
2021/08/07 07:14:49;;;;;;;11.25;4.40;;;16.70;99.90;;;;;;5076528;28;20040;-73
2021/08/07 07:17:15;;;;;;;11.00;4.40;;;16.80;99.90;;;;;;5077915;28;20040;-72
2021/08/07 07:19:41;;;;;;;9.65;4.40;;;17.00;99.90;;;;;;5071611;28;20113;-72
2021/08/07 07:22:10;;;;;;;8.68;4.07;;;17.20;99.90;;;;;;5066525;28;20033;-73
2021/08/07 07:24:36;;;;;;;10.95;3.95;;;17.40;99.90;;;;;;5085126;28;20083;-73
2021/08/07 07:27:02;;;;;;;8.75;3.83;;;17.60;99.80;;;;;;5076091;28;20047;-72
2021/08/07 07:29:28;;;;;;;8.30;3.42;;;17.80;99.10;;;;;;5057284;28;20287;-73
2021/08/07 07:31:54;;;;;;;9.07;3.28;;;18.00;98.50;;;;;;5050716;28;21136;-73
2021/08/07 07:34:20;;;;;;;9.45;2.97;;;18.10;98.10;;;;;;5064435;28;20558;-72
2021/08/07 07:36:46;;;;;;;7.80;2.67;;;18.10;97.50;;;;;;5072516;28;20043;-73
2021/08/07 07:39:12;;;;;;;12.82;2.63;;;18.10;97.20;;;;;;5063422;28;20383;-73
2021/08/07 07:41:41;;;;;;;5.90;2.13;;;18.10;96.60;;;;;;5074460;28;20040;-73
2021/08/07 07:44:07;;;;;;;5.85;1.98;;;18.20;96.40;;;;;;5058839;28;20032;-73
2021/08/07 07:46:33;;;;;;;7.28;1.92;;;18.20;95.90;;;;;;5034455;28;20052;-71
2021/08/07 07:48:59;;;;;;;8.13;2.38;;;18.20;95.80;;;;;;5076470;28;20044;-72
2021/08/07 07:51:25;;;;;;;6.68;2.08;;;18.10;95.60;;;;;;5079361;28;20040;-72
2021/08/07 07:53:50;;;;;;;8.35;2.50;;;18.10;95.50;;;;;;5072322;28;20820;-72
2021/08/07 07:56:16;;;;;;;6.88;1.80;;;18.00;95.80;;;;;;5076557;28;20375;-72
2021/08/07 07:58:42;;;;;;;6.10;2.00;;;17.90;95.70;;;;;;5079043;28;20040;-72
2021/08/07 08:01:11;;;;;;;6.93;2.17;;;17.90;95.90;;;;;;5072721;28;20040;-73
2021/08/07 08:03:37;;;;;;;8.20;2.40;;;17.90;96.20;;;;;;5075166;28;20036;-72
2021/08/07 08:06:05;;;;;;;5.47;2.17;;;17.80;96.20;;;;;;5074143;28;20475;-72
2021/08/07 08:08:31;;;;;;;6.50;1.98;;;17.80;96.10;;;;;;5071569;28;20491;-73
2021/08/07 08:10:57;;;;;;;9.18;2.40;;;17.90;96.20;;;;;;5078310;28;20086;-73
2021/08/07 08:13:23;;;;;;;6.25;2.28;;;18.00;96.40;;;;;;5063577;28;20115;-73
2021/08/07 08:15:49;;;;;;;7.57;2.15;;;18.20;96.20;;;;;;5060932;28;20459;-73
2021/08/07 08:18:15;;;;;;;5.78;2.03;;;18.40;95.90;;;;;;5071356;28;20044;-72
2021/08/07 08:20:43;;;;;;;4.88;2.08;;;18.50;95.80;;;;;;5070357;28;20040;-70
2021/08/07 08:23:10;;;;;;;5.57;1.73;;;18.60;95.60;;;;;;5068630;28;22031;-72
2021/08/07 08:25:35;;;;;;;6.53;2.00;;;18.80;95.50;;;;;;5073322;28;20406;-72
2021/08/07 08:28:03;;;;;;;5.72;2.03;;;18.90;94.80;;;;;;5075530;28;20053;-74
2021/08/07 08:30:29;;;;;;;6.88;1.92;;;19.10;95.00;;;;;;5070632;28;20497;-72
2021/08/07 08:32:56;;;;;;;6.10;2.00;;;19.40;94.40;;;;;;5074616;28;20040;-71
2021/08/07 08:35:22;;;;;;;5.75;1.75;;;19.60;94.30;;;;;;5071992;28;20038;-72
2021/08/07 08:37:48;;;;;;;5.63;1.73;;;19.80;92.90;;;;;;5070558;28;20466;-72
2021/08/07 08:40:14;;;;;;;7.00;1.98;;;19.70;92.30;;;;;;5076117;28;20032;-72
2021/08/07 08:42:41;;;;;;;4.05;1.63;;;19.60;93.00;;;;;;5076866;28;20044;-71
2021/08/07 08:45:08;;;;;;;4.93;1.40;;;19.60;93.20;;;;;;5073758;28;20384;-72
2021/08/07 08:47:37;;;;;;;6.32;1.70;;;19.60;92.50;;;;;;5075686;28;20586;-72
2021/08/07 08:50:22;;;;;;;3.80;1.52;;;19.70;92.50;;;;;;5089223;28;20093;-71
2021/08/07 08:52:50;;;;;;;5.30;1.70;;;19.80;92.40;;;;;;5068045;28;20067;-71
2021/08/07 08:55:18;;;;;;;4.85;1.60;;;19.90;92.10;;;;;;5073613;28;20036;-72
2021/08/07 08:57:43;;;;;;;5.55;1.33;;;20.00;91.80;;;;;;5077815;28;20502;-72
2021/08/07 09:00:11;;;;;;;4.85;1.40;;;20.10;91.80;;;;;;5073331;28;20040;-73
2021/08/07 09:02:40;;;;;;;5.22;1.40;;;20.20;91.00;;;;;;5061977;28;20040;-72
2021/08/07 09:05:10;;;;;;;3.50;1.02;;;20.30;91.00;;;;;;5074846;28;20035;-72
2021/08/07 09:07:36;;;;;;;3.78;1.00;;;20.40;90.50;;;;;;5059993;28;20050;-72
2021/08/07 09:10:03;;;;;;;2.67;0.82;;;20.40;90.10;;;;;;5074050;28;20490;-72
2021/08/07 09:12:51;;;;;;;5.35;1.38;;;20.30;89.80;;;;;;5072113;28;20047;-72
2021/08/07 09:15:30;;;;;;;5.53;1.30;;;20.10;89.90;;;;;;5070485;28;20056;-72
2021/08/07 09:18:14;;;;;;;4.35;1.30;;;19.90;89.60;;;;;;5073110;28;20059;-71
2021/08/07 09:20:47;;;;;;;2.42;1.10;;;19.80;90.20;;;;;;5074986;28;20047;-72
2021/08/07 09:23:13;;;;;;;5.57;1.60;;;19.70;90.50;;;;;;5068734;28;20029;-72
2021/08/07 09:25:47;;;;;;;3.95;0.95;;;19.80;91.20;;;;;;5072870;28;20036;-71
2021/08/07 09:28:13;;;;;;;1.65;0.90;;;20.10;90.70;;;;;;5070724;28;20055;-71
2021/08/07 09:30:41;;;;;;;4.15;1.27;;;20.30;90.20;;;;;;5076714;28;20098;-71
2021/08/07 09:33:20;;;;;;;2.65;1.10;;;20.40;90.20;;;;;;5076498;28;20032;-72
2021/08/07 09:35:47;;;;;;;6.50;1.10;;;20.60;90.40;;;;;;5075497;28;20033;-71
2021/08/07 09:38:22;;;;;;;3.28;0.95;;;20.70;88.40;;;;;;5063299;28;20071;-71
2021/08/07 09:41:01;;;;;;;4.40;0.50;;;20.70;84.80;;;;;;5055043;28;20160;-72
2021/08/07 09:43:48;;;;;;;4.18;0.90;;;20.80;86.50;;;;;;5069395;28;20071;-72
2021/08/07 09:46:22;;;;;;;3.83;0.88;;;20.90;86.90;;;;;;5069396;28;20040;-72
2021/08/07 09:48:53;;;;;;;2.50;0.60;;;20.90;86.70;;;;;;5066737;28;20116;-72
2021/08/07 09:51:28;;;;;;;4.63;1.05;;;20.90;86.10;;;;;;5070833;28;20055;-72
2021/08/07 09:54:26;;;;;;;4.40;1.00;;;20.80;88.00;;;;;;5065784;28;20032;-72
2021/08/07 09:56:57;;;;;;;3.88;1.50;;;20.80;88.30;;;;;;5069399;28;20055;-71
2021/08/07 09:59:25;;;;;;;3.30;0.93;;;20.90;86.30;;;;;;5061381;28;20063;-74
2021/08/07 10:01:53;;;;;;;3.50;0.75;;;20.90;88.10;;;;;;5069046;28;20082;-73
2021/08/07 10:04:22;;;;;;;3.20;0.80;;;21.00;86.30;;;;;;5071266;28;20071;-72
2021/08/07 10:07:04;;;;;;;2.75;1.10;;;21.10;86.30;;;;;;5064350;28;20119;-73
2021/08/07 10:09:32;;;;;;;4.57;1.08;;;21.10;86.20;;;;;;5068906;28;20040;-73
2021/08/07 10:12:08;;;;;;;4.90;1.00;;;21.00;84.40;;;;;;5087361;28;20069;-72
2021/08/07 10:14:41;;;;;;;4.40;1.10;;;20.90;84.30;;;;;;5067678;28;20039;-73
2021/08/07 10:17:12;;;;;;;3.45;1.10;;;20.70;85.30;;;;;;5070915;28;20039;-72
2021/08/07 10:19:39;;;;;;;5.63;1.17;;;20.80;86.60;;;;;;5063698;28;20036;-72
2021/08/07 10:22:07;;;;;;;3.47;0.75;;;20.70;86.40;;;;;;5065196;28;20061;-71
2021/08/07 10:24:35;;;;;;;5.25;1.15;;;20.70;86.50;;;;;;5073553;28;20539;-72
2021/08/07 10:27:02;;;;;;;3.92;1.15;;;20.60;86.40;;;;;;5070674;28;20105;-72
2021/08/07 10:29:38;;;;;;;4.32;1.40;;;20.40;86.50;;;;;;5068979;28;20426;-72
2021/08/07 10:32:06;;;;;;;4.07;1.10;;;20.40;87.40;;;;;;5071935;28;20035;-73
2021/08/07 10:34:34;;;;;;;4.28;1.00;;;20.40;87.90;;;;;;5076612;28;20372;-73
2021/08/07 10:37:00;;;;;;;5.10;0.90;;;20.40;88.00;;;;;;5069910;28;20029;-74
2021/08/07 10:39:29;;;;;;;6.63;1.88;;;20.60;88.90;;;;;;5059563;28;20411;-73
2021/08/07 10:41:59;;;;;;;2.72;1.10;;;20.80;89.20;;;;;;5062973;28;20126;-74
2021/08/07 10:44:26;;;;;;;4.03;1.00;;;21.20;89.30;;;;;;5076110;28;20047;-73
2021/08/07 10:46:54;;;;;;;3.95;1.10;;;21.60;89.20;;;;;;5055796;28;20089;-73
2021/08/07 10:49:40;;;;;;;3.55;1.25;;;22.00;86.00;;;;;;5073476;28;20052;-74
2021/08/07 10:52:21;;;;;;;3.22;1.08;;;22.10;84.30;;;;;;5061632;28;20392;-75
2021/08/07 10:54:52;;;;;;;3.78;0.93;;;22.10;83.30;;;;;;5093544;28;20515;-73
2021/08/07 10:57:41;;;;;;;7.13;1.85;;;22.00;84.80;;;;;;5070000;28;20047;-74
2021/08/07 11:00:16;;;;;;;7.30;1.70;;;22.10;84.80;;;;;;5077391;28;20043;-74
2021/08/07 11:02:43;;;;;;;5.68;1.50;;;22.30;85.20;;;;;;5074280;28;20536;-73
2021/08/07 11:05:09;;;;;;;3.80;1.30;;;22.50;81.50;;;;;;5077020;28;20049;-75
2021/08/07 11:07:36;;;;;;;6.43;1.90;;;22.60;77.10;;;;;;5074499;28;20123;-73
2021/08/07 11:10:14;;;;;;;3.53;1.33;;;22.70;78.70;;;;;;5068825;28;20094;-75
2021/08/07 11:12:44;;;;;;;3.92;1.30;;;22.90;77.20;;;;;;5076356;28;20082;-72
2021/08/07 11:15:31;;;;;;;4.60;1.10;;;22.90;77.80;;;;;;5059655;28;20044;-73
2021/08/07 11:18:17;;;;;;;4.15;0.93;;;23.00;79.50;;;;;;5080143;28;20092;-73
2021/08/07 11:20:44;;;;;;;5.22;1.17;;;23.00;74.80;;;;;;5061848;28;20078;-73
2021/08/07 11:23:11;;;;;;;5.38;1.20;;;23.10;76.60;;;;;;5077772;28;20043;-73
2021/08/07 11:26:07;;;;;;;3.92;1.10;;;23.30;77.60;;;;;;5073701;28;20039;-72
2021/08/07 11:28:46;;;;;;;2.95;0.73;;;23.40;77.80;;;;;;5069265;28;20056;-72
2021/08/07 11:31:15;;;;;;;4.68;1.40;;;23.40;76.70;;;;;;5078817;28;20040;-72
2021/08/07 11:33:41;;;;;;;1.70;0.80;;;23.20;75.90;;;;;;5081072;28;20051;-72
2021/08/07 11:36:10;;;;;;;3.00;1.10;;;23.10;77.40;;;;;;5081999;28;20040;-73
2021/08/07 11:39:00;;;;;;;5.35;1.10;;;23.00;77.20;;;;;;5070738;28;20044;-71
2021/08/07 11:41:34;;;;;;;3.80;1.00;;;23.00;78.10;;;;;;5072705;28;20040;-73
2021/08/07 11:44:01;;;;;;;2.67;0.95;;;22.80;79.50;;;;;;5076266;28;20043;-72
2021/08/07 11:46:37;;;;;;;3.22;1.10;;;22.60;80.40;;;;;;5074905;28;20052;-72
2021/08/07 11:49:04;;;;;;;3.53;0.82;;;22.40;79.30;;;;;;5079657;28;20090;-72
2021/08/07 11:51:30;;;;;;;3.15;1.05;;;22.20;80.60;;;;;;5075855;28;20040;-73
2021/08/07 11:53:56;;;;;;;2.85;0.70;;;22.00;82.30;;;;;;5076731;28;20117;-72
2021/08/07 11:56:26;;;;;;;2.63;1.02;;;21.90;82.50;;;;;;5082792;28;20044;-72
2021/08/07 11:58:57;;;;;;;2.97;0.90;;;21.80;84.00;;;;;;5077806;28;20082;-72
2021/08/07 12:01:34;;;;;;;3.53;1.05;;;21.70;82.40;;;;;;5068472;28;20127;-72
2021/08/07 12:04:00;;;;;;;3.30;1.00;;;21.60;83.20;;;;;;5078731;28;20490;-72
2021/08/07 12:06:34;;;;;;;2.33;1.08;;;21.50;83.50;;;;;;5070832;28;20090;-72
2021/08/07 12:09:08;;;;;;;2.08;0.90;;;21.40;83.50;;;;;;5079638;28;20102;-72
2021/08/07 12:11:34;;;;;;;6.32;1.48;;;21.40;83.70;;;;;;5081484;28;20124;-73
2021/08/07 12:14:00;;;;;;;5.53;1.38;;;21.30;83.80;;;;;;5076141;28;20032;-72
2021/08/07 12:16:33;;;;;;;4.00;1.10;;;21.30;83.70;;;;;;5055588;28;20043;-73
2021/08/07 12:19:06;;;;;;;3.33;1.20;;;21.20;84.10;;;;;;5073882;28;20040;-72
2021/08/07 12:21:40;;;;;;;4.05;1.40;;;21.20;84.70;;;;;;5073675;28;20040;-73
2021/08/07 12:24:20;;;;;;;4.60;1.10;;;21.40;86.20;;;;;;5074884;28;20669;-73
2021/08/07 12:26:55;;;;;;;4.72;1.10;;;21.80;85.50;;;;;;5072485;28;20075;-73
2021/08/07 12:29:32;;;;;;;4.32;1.50;;;22.10;83.80;;;;;;5076694;28;20064;-73
2021/08/07 12:32:00;;;;;;;4.38;1.63;;;22.40;82.30;;;;;;5071992;28;20097;-73
2021/08/07 12:34:27;;;;;;;4.05;1.30;;;22.80;81.40;;;;;;5080768;28;20089;-73
2021/08/07 12:37:05;;;;;;;10.35;2.40;;;23.10;79.30;;;;;;5071861;28;20036;-74
2021/08/07 12:39:46;;;;;;;7.20;2.17;;;23.40;79.60;;;;;;5071457;28;20056;-74
2021/08/07 12:42:15;;;;;;;8.27;1.95;;;23.60;75.00;;;;;;5077948;28;20458;-74
2021/08/07 12:44:42;;;;;;;3.78;1.20;;;23.70;75.60;;;;;;5072373;28;20494;-74
2021/08/07 12:47:11;;;;;;;3.67;1.15;;;23.70;77.10;;;;;;5059909;28;20050;-75
2021/08/07 12:49:42;;;;;;;5.18;1.40;;;23.50;74.20;;;;;;5073772;28;20052;-73
2021/08/07 12:52:16;;;;;;;2.90;0.98;;;23.20;75.30;;;;;;5074681;28;20040;-73
2021/08/07 12:54:43;;;;;;;6.03;1.40;;;22.90;74.80;;;;;;5055646;28;20033;-72